Goose Rock, Kentucky
Current Conditions -  °F | °C
As of 4:53 PM on Thursday 18 Dec 2014 (Local Time) from KLOZ Reporting Station
Overcast Overcast  
Wind Chill: 36°   Ceiling: 4600
Heat Index: 36°   Visibility: 10mi
Dew Point: 25°   Wind: 0mph
Humidity: 64%   Direction: NA
Pressure: 30.17"   Gusts: NA
Location:  37.09°N, 83.69°W
Report Text: KLOZ 182153Z AUTO 00000KT 10SM OVC046 02/M04 A3017 RMK AO2 SLP226 T00221039
Loading
Personal Weather Stations






























Interactive Weather Map New forecast layout! Learn more

10-Day Weather Forecast

Advertisements
Track Severe Weather on mobile